Time;durP1;ratioP1;P1;durP2;ratioP2;P2;SDS_P1;SDS_P2;PMS_P1;PMS_P2;Temp;Humidity;BMP_temperature;BMP_pressure;BME280_temperature;BME280_humidity;BME280_pressure;Samples;Min_cycle;Max_cycle;Signal;HPM_P1;HPM_P2
2021/07/07 00:00:58;;;;;;;3.13;1.00;;;17.40;89.30;;;;;;5072426;28;20027;-80
2021/07/07 00:03:25;;;;;;;3.17;1.17;;;17.40;89.60;;;;;;5072558;28;20028;-80
2021/07/07 00:05:51;;;;;;;1.25;0.90;;;17.20;90.00;;;;;;5072427;28;20013;-79
2021/07/07 00:08:17;;;;;;;2.72;1.00;;;17.00;90.30;;;;;;5071243;28;20020;-79
2021/07/07 00:10:43;;;;;;;3.58;1.42;;;16.90;91.10;;;;;;5072297;28;20101;-79
2021/07/07 00:13:08;;;;;;;2.80;1.00;;;16.80;91.30;;;;;;5072430;28;20066;-79
2021/07/07 00:15:34;;;;;;;1.17;0.98;;;16.80;91.40;;;;;;5072311;28;20042;-79
2021/07/07 00:18:03;;;;;;;1.33;0.95;;;16.80;91.40;;;;;;5072227;28;20036;-79
2021/07/07 00:20:36;;;;;;;1.63;0.95;;;16.80;91.10;;;;;;5072325;28;20103;-79
2021/07/07 00:23:03;;;;;;;1.25;0.98;;;16.80;91.50;;;;;;5072272;28;20028;-79
2021/07/07 00:25:29;;;;;;;2.47;0.93;;;16.90;91.40;;;;;;5073164;28;20028;-79
2021/07/07 00:27:54;;;;;;;0.77;0.63;;;16.90;91.10;;;;;;5075765;28;20105;-79
2021/07/07 00:30:20;;;;;;;2.05;1.00;;;17.00;90.80;;;;;;5075671;28;20495;-80
2021/07/07 00:32:46;;;;;;;1.40;1.05;;;17.10;90.60;;;;;;5075784;28;20095;-80
2021/07/07 00:35:12;;;;;;;1.38;1.13;;;17.10;90.20;;;;;;5075567;28;20070;-81
2021/07/07 00:37:38;;;;;;;1.58;1.00;;;17.20;90.20;;;;;;5075685;28;20021;-80
2021/07/07 00:40:05;;;;;;;1.88;0.77;;;17.20;89.90;;;;;;5075372;28;20488;-80
2021/07/07 00:42:30;;;;;;;3.28;0.90;;;17.20;89.70;;;;;;5075436;28;20089;-80
2021/07/07 00:44:56;;;;;;;1.75;1.13;;;17.20;89.60;;;;;;5075482;28;20460;-79
2021/07/07 00:47:21;;;;;;;3.08;1.33;;;17.20;89.50;;;;;;5075269;28;20586;-79
2021/07/07 00:49:47;;;;;;;0.98;0.90;;;17.20;89.50;;;;;;5075515;28;20031;-79
2021/07/07 00:52:13;;;;;;;1.13;0.82;;;17.20;89.30;;;;;;5075290;28;20515;-79
2021/07/07 00:54:38;;;;;;;2.58;0.95;;;17.20;89.50;;;;;;5075272;28;20021;-78
2021/07/07 00:57:04;;;;;;;2.42;1.00;;;17.20;89.20;;;;;;5075167;28;20480;-79
2021/07/07 00:59:31;;;;;;;0.70;0.70;;;17.20;89.10;;;;;;5075107;28;20028;-78
2021/07/07 01:01:58;;;;;;;1.10;1.00;;;17.20;89.20;;;;;;5075208;28;20535;-78
2021/07/07 01:04:24;;;;;;;3.53;1.00;;;17.20;89.50;;;;;;5075183;28;20024;-78
2021/07/07 01:06:49;;;;;;;1.98;1.17;;;17.20;89.50;;;;;;5075097;28;20035;-78
2021/07/07 01:09:15;;;;;;;2.63;1.40;;;17.30;89.60;;;;;;5074974;28;20016;-77
2021/07/07 01:11:40;;;;;;;2.92;1.00;;;17.30;89.50;;;;;;5074889;28;20439;-78
2021/07/07 01:14:06;;;;;;;4.93;0.93;;;17.30;89.50;;;;;;5074859;28;20023;-77
2021/07/07 01:16:31;;;;;;;2.72;1.00;;;17.30;89.60;;;;;;5074860;28;20058;-78
2021/07/07 01:18:57;;;;;;;1.40;1.02;;;17.30;89.80;;;;;;5074799;28;20062;-77
2021/07/07 01:21:24;;;;;;;1.33;1.10;;;17.20;90.00;;;;;;5074720;28;20021;-78
2021/07/07 01:23:51;;;;;;;3.72;0.90;;;17.10;90.20;;;;;;5074731;28;20504;-77
2021/07/07 01:26:16;;;;;;;3.13;0.80;;;17.10;90.50;;;;;;5074558;28;20024;-77
2021/07/07 01:28:42;;;;;;;1.90;1.08;;;17.00;90.20;;;;;;5074560;28;20075;-78
2021/07/07 01:31:08;;;;;;;1.80;1.05;;;17.10;90.50;;;;;;5074558;28;20068;-77
2021/07/07 01:33:34;;;;;;;1.52;0.80;;;17.10;90.50;;;;;;5074492;28;20078;-78
2021/07/07 01:36:00;;;;;;;2.53;1.17;;;17.10;90.40;;;;;;5074118;28;20031;-78
2021/07/07 01:38:26;;;;;;;2.03;1.10;;;17.20;90.50;;;;;;5073091;28;20020;-78
2021/07/07 01:40:56;;;;;;;1.20;1.10;;;17.10;90.90;;;;;;5074300;28;20069;-77
2021/07/07 01:43:22;;;;;;;2.10;1.33;;;17.10;90.80;;;;;;5074197;28;20150;-78
2021/07/07 01:45:47;;;;;;;1.55;1.08;;;17.10;90.80;;;;;;5074303;28;20017;-78
2021/07/07 01:48:13;;;;;;;6.43;1.50;;;17.20;90.70;;;;;;5073897;28;20516;-78
2021/07/07 01:50:38;;;;;;;4.22;1.30;;;17.20;90.80;;;;;;5073834;28;20036;-77
2021/07/07 01:53:04;;;;;;;4.47;1.40;;;17.10;91.20;;;;;;5074005;28;20020;-77
2021/07/07 01:55:29;;;;;;;5.70;1.88;;;17.10;91.70;;;;;;5074145;28;20035;-77
2021/07/07 01:57:56;;;;;;;3.03;1.60;;;16.90;92.00;;;;;;5073924;28;20024;-77
2021/07/07 02:00:25;;;;;;;1.38;1.27;;;16.80;92.50;;;;;;5073841;28;20025;-77
2021/07/07 02:02:53;;;;;;;1.23;1.13;;;16.90;92.50;;;;;;5073120;28;20077;-77
2021/07/07 02:05:21;;;;;;;2.63;1.20;;;16.90;92.30;;;;;;5073472;28;20100;-77
2021/07/07 02:07:47;;;;;;;1.52;1.08;;;17.00;92.20;;;;;;5073784;28;20420;-77
2021/07/07 02:10:14;;;;;;;5.03;1.60;;;17.00;92.20;;;;;;5073688;28;20033;-77
2021/07/07 02:12:40;;;;;;;2.42;1.38;;;17.00;91.80;;;;;;5073587;28;20039;-77
2021/07/07 02:15:17;;;;;;;1.55;1.08;;;16.90;91.80;;;;;;5073707;28;20025;-77
2021/07/07 02:17:43;;;;;;;1.75;1.00;;;16.90;92.00;;;;;;5073676;28;20517;-77
2021/07/07 02:20:12;;;;;;;2.42;1.23;;;17.00;92.00;;;;;;5073595;28;20028;-77
2021/07/07 02:22:38;;;;;;;1.58;1.30;;;17.00;91.80;;;;;;5073535;28;20017;-78
2021/07/07 02:25:09;;;;;;;0.80;0.80;;;17.10;91.70;;;;;;5073513;28;20024;-78
2021/07/07 02:27:35;;;;;;;3.20;1.30;;;17.10;91.40;;;;;;5073474;28;20039;-78
2021/07/07 02:30:01;;;;;;;2.03;1.20;;;17.10;90.90;;;;;;5073623;28;20503;-79
2021/07/07 02:32:27;;;;;;;2.85;1.00;;;17.10;90.60;;;;;;5074230;28;20064;-78
2021/07/07 02:34:53;;;;;;;4.22;1.10;;;17.00;90.60;;;;;;5073459;28;20067;-79
2021/07/07 02:37:18;;;;;;;1.88;1.08;;;17.00;90.70;;;;;;5073307;28;20028;-78
2021/07/07 02:39:44;;;;;;;0.90;0.90;;;17.00;90.90;;;;;;5073294;28;20029;-78
2021/07/07 02:42:09;;;;;;;2.88;0.90;;;17.00;91.00;;;;;;5073279;28;20499;-78
2021/07/07 02:44:35;;;;;;;0.90;0.88;;;17.10;91.00;;;;;;5073274;28;20100;-78
2021/07/07 02:47:01;;;;;;;2.65;1.70;;;17.00;90.50;;;;;;5073081;28;20027;-78
2021/07/07 02:49:26;;;;;;;3.38;1.92;;;17.00;90.70;;;;;;5072448;28;20024;-78
2021/07/07 02:51:52;;;;;;;5.18;1.90;;;16.80;91.60;;;;;;5073191;28;20035;-79
2021/07/07 02:54:17;;;;;;;3.83;2.50;;;16.70;92.60;;;;;;5073301;28;20024;-77
2021/07/07 02:56:43;;;;;;;3.13;2.20;;;16.60;93.30;;;;;;5073111;28;20039;-77
2021/07/07 02:59:08;;;;;;;5.43;2.53;;;16.60;94.00;;;;;;5073182;28;20045;-77
2021/07/07 03:01:34;;;;;;;3.03;2.30;;;16.50;94.30;;;;;;5073001;28;20016;-77
2021/07/07 03:04:00;;;;;;;3.17;2.75;;;16.50;94.20;;;;;;5073145;28;20032;-77
2021/07/07 03:06:25;;;;;;;3.42;2.80;;;16.60;94.10;;;;;;5073218;28;20024;-78
2021/07/07 03:08:51;;;;;;;2.83;2.05;;;16.70;93.60;;;;;;5073063;28;20021;-77
2021/07/07 03:11:17;;;;;;;4.13;2.50;;;16.70;93.40;;;;;;5073011;28;20178;-78
2021/07/07 03:13:42;;;;;;;4.07;2.10;;;16.80;93.20;;;;;;5073057;28;20013;-77
2021/07/07 03:16:08;;;;;;;2.45;1.92;;;16.70;92.80;;;;;;5072986;28;20139;-78
2021/07/07 03:18:33;;;;;;;2.72;1.55;;;16.80;92.80;;;;;;5072935;28;20492;-78
2021/07/07 03:20:59;;;;;;;1.95;1.60;;;16.80;92.60;;;;;;5072902;28;20037;-78
2021/07/07 03:23:26;;;;;;;2.58;1.90;;;16.70;92.40;;;;;;5073142;28;20025;-77
2021/07/07 03:25:54;;;;;;;6.95;2.90;;;16.80;92.30;;;;;;5072887;28;20472;-77
2021/07/07 03:28:22;;;;;;;2.15;1.95;;;16.80;92.50;;;;;;5071595;28;20111;-77
2021/07/07 03:30:47;;;;;;;3.42;2.22;;;16.60;93.10;;;;;;5072723;28;20025;-77
2021/07/07 03:33:13;;;;;;;4.13;2.55;;;16.60;93.30;;;;;;5072715;28;20020;-77
2021/07/07 03:35:39;;;;;;;8.60;2.63;;;16.60;93.70;;;;;;5072783;28;20437;-77
2021/07/07 03:38:05;;;;;;;4.13;3.22;;;16.50;94.00;;;;;;5072735;28;20489;-76
2021/07/07 03:40:32;;;;;;;3.90;2.88;;;16.50;93.90;;;;;;5072665;28;20043;-77
2021/07/07 03:43:00;;;;;;;5.50;2.38;;;16.40;94.40;;;;;;5072672;28;20043;-76
2021/07/07 03:45:27;;;;;;;2.92;2.63;;;16.50;94.60;;;;;;5072549;28;20461;-77
2021/07/07 03:47:53;;;;;;;2.65;2.35;;;16.50;94.30;;;;;;5075016;28;20052;-75
2021/07/07 03:50:20;;;;;;;3.58;2.40;;;16.60;94.20;;;;;;5076659;28;20025;-76
2021/07/07 03:52:46;;;;;;;3.72;2.65;;;16.60;94.20;;;;;;5075883;28;20021;-77
2021/07/07 03:55:14;;;;;;;4.70;2.00;;;16.70;94.20;;;;;;5073981;28;20392;-75
2021/07/07 03:57:41;;;;;;;3.38;2.10;;;16.80;93.90;;;;;;5072590;28;20028;-76
2021/07/07 04:00:09;;;;;;;1.70;1.60;;;16.80;93.30;;;;;;5074358;28;20108;-78
2021/07/07 04:02:35;;;;;;;1.70;1.58;;;16.80;93.10;;;;;;5076136;28;20055;-77
2021/07/07 04:05:01;;;;;;;1.70;1.13;;;16.90;92.90;;;;;;5076328;28;20056;-77
2021/07/07 04:07:27;;;;;;;2.08;1.80;;;16.90;92.60;;;;;;5074853;28;20021;-77
2021/07/07 04:09:52;;;;;;;3.13;2.20;;;16.90;92.50;;;;;;5075735;28;20032;-77
2021/07/07 04:12:18;;;;;;;4.50;2.20;;;17.00;92.30;;;;;;5075859;28;20530;-77
2021/07/07 04:14:43;;;;;;;6.05;2.40;;;16.80;92.10;;;;;;5075857;28;20025;-78
2021/07/07 04:17:09;;;;;;;2.95;2.35;;;16.80;92.40;;;;;;5075958;28;20033;-78
2021/07/07 04:19:35;;;;;;;2.35;2.08;;;16.60;92.70;;;;;;5075917;28;20050;-76
2021/07/07 04:22:00;;;;;;;3.08;2.38;;;16.40;93.10;;;;;;5075770;28;20484;-75
2021/07/07 04:24:26;;;;;;;3.95;2.13;;;16.30;93.90;;;;;;5075621;28;20052;-75
2021/07/07 04:26:52;;;;;;;6.13;2.78;;;16.30;94.10;;;;;;5075459;28;20040;-76
2021/07/07 04:29:18;;;;;;;3.13;2.65;;;16.30;94.20;;;;;;5075623;28;20381;-75
2021/07/07 04:31:44;;;;;;;5.35;2.85;;;16.20;94.20;;;;;;5075461;28;20051;-76
2021/07/07 04:34:10;;;;;;;4.28;2.63;;;16.20;94.80;;;;;;5075449;28;20033;-76
2021/07/07 04:36:36;;;;;;;3.55;2.17;;;16.10;94.20;;;;;;5075967;28;20381;-77
2021/07/07 04:39:05;;;;;;;4.22;2.40;;;16.10;94.40;;;;;;5075612;28;20021;-75
2021/07/07 04:41:30;;;;;;;3.63;2.22;;;16.00;94.40;;;;;;5075538;28;20071;-76
2021/07/07 04:43:56;;;;;;;4.57;2.20;;;16.00;94.50;;;;;;5075340;28;20484;-75
2021/07/07 04:46:22;;;;;;;3.38;2.00;;;16.00;94.20;;;;;;5075431;28;20029;-77
2021/07/07 04:48:47;;;;;;;4.18;2.20;;;15.90;94.20;;;;;;5075312;28;20131;-78
2021/07/07 04:51:13;;;;;;;3.63;2.30;;;15.80;94.10;;;;;;5075109;28;20086;-78
2021/07/07 04:53:40;;;;;;;3.35;1.83;;;15.90;94.30;;;;;;5075353;28;20021;-78
2021/07/07 04:56:06;;;;;;;2.67;2.05;;;15.70;94.40;;;;;;5075217;28;20025;-78
2021/07/07 04:58:32;;;;;;;4.82;2.35;;;15.50;95.70;;;;;;5075157;28;20024;-77
2021/07/07 05:00:58;;;;;;;1.77;1.60;;;15.50;95.70;;;;;;5075127;28;20021;-79
2021/07/07 05:03:24;;;;;;;3.03;1.75;;;15.50;95.20;;;;;;5075055;28;20066;-79
2021/07/07 05:05:49;;;;;;;3.95;2.30;;;15.50;95.30;;;;;;5075217;28;20032;-78
2021/07/07 05:08:15;;;;;;;1.92;1.67;;;15.60;95.40;;;;;;5074897;28;20029;-77
2021/07/07 05:10:41;;;;;;;1.38;1.27;;;15.50;95.90;;;;;;5072823;28;20028;-77
2021/07/07 05:13:06;;;;;;;1.40;1.15;;;15.50;95.40;;;;;;5072291;28;20558;-78
2021/07/07 05:15:33;;;;;;;2.67;1.50;;;15.60;95.40;;;;;;5073839;28;20020;-78
2021/07/07 05:17:59;;;;;;;1.70;1.00;;;15.70;94.70;;;;;;5073647;28;20050;-80
2021/07/07 05:20:25;;;;;;;1.95;0.90;;;15.70;94.50;;;;;;5073978;28;20044;-79
2021/07/07 05:22:51;;;;;;;1.55;0.82;;;15.80;94.30;;;;;;5072772;28;20095;-78
2021/07/07 05:25:18;;;;;;;1.85;0.90;;;15.90;94.10;;;;;;5072953;28;20016;-79
2021/07/07 05:27:44;;;;;;;2.55;0.80;;;16.00;94.00;;;;;;5074042;28;20099;-80
2021/07/07 05:30:11;;;;;;;1.02;0.80;;;16.00;93.80;;;;;;5073889;28;20043;-80
2021/07/07 05:32:37;;;;;;;2.95;1.45;;;16.10;93.60;;;;;;5074196;28;20032;-78
2021/07/07 05:35:04;;;;;;;3.03;1.02;;;16.20;93.10;;;;;;5073844;28;20027;-77
2021/07/07 05:37:30;;;;;;;1.98;1.17;;;16.20;93.00;;;;;;5074290;28;20028;-78
2021/07/07 05:39:55;;;;;;;1.95;1.10;;;16.20;92.30;;;;;;5074220;28;20357;-78
2021/07/07 05:42:21;;;;;;;1.90;1.00;;;16.30;92.30;;;;;;5074175;28;20551;-78
2021/07/07 05:44:48;;;;;;;1.38;1.08;;;16.30;92.30;;;;;;5073899;28;20020;-77
2021/07/07 05:47:15;;;;;;;1.85;1.02;;;16.30;92.40;;;;;;5073813;28;20031;-77
2021/07/07 05:49:41;;;;;;;1.30;1.05;;;16.30;92.20;;;;;;5073853;28;20024;-78
2021/07/07 05:52:07;;;;;;;1.77;1.00;;;16.40;91.80;;;;;;5073650;28;20029;-78
2021/07/07 05:54:33;;;;;;;3.10;0.90;;;16.40;91.50;;;;;;5073441;28;20399;-78
2021/07/07 05:56:59;;;;;;;0.95;0.63;;;16.40;91.40;;;;;;5073600;28;20099;-78
2021/07/07 05:59:25;;;;;;;0.98;0.80;;;16.50;91.50;;;;;;5073832;28;20099;-78
2021/07/07 06:01:50;;;;;;;1.27;0.73;;;16.50;91.30;;;;;;5073763;28;20060;-77
2021/07/07 06:04:16;;;;;;;0.82;0.82;;;16.50;91.80;;;;;;5073745;28;20044;-77
2021/07/07 06:06:42;;;;;;;2.33;1.10;;;16.60;90.50;;;;;;5073861;28;20477;-77
2021/07/07 06:09:07;;;;;;;1.55;0.82;;;16.60;89.90;;;;;;5073704;28;20039;-77
2021/07/07 06:11:33;;;;;;;1.67;0.88;;;16.60;88.30;;;;;;5073459;28;20036;-78
2021/07/07 06:13:58;;;;;;;4.10;1.50;;;16.60;87.70;;;;;;5073346;28;20020;-78
2021/07/07 06:16:24;;;;;;;6.20;2.95;;;16.60;87.30;;;;;;5073263;28;20020;-77
2021/07/07 06:18:50;;;;;;;5.15;2.53;;;16.60;86.00;;;;;;5071807;28;20024;-77
2021/07/07 06:21:17;;;;;;;4.68;2.63;;;16.50;85.80;;;;;;5073270;28;20031;-77
2021/07/07 06:23:43;;;;;;;4.60;2.20;;;16.50;85.80;;;;;;5073108;28;20029;-78
2021/07/07 06:26:09;;;;;;;2.75;1.70;;;16.50;84.20;;;;;;5071573;28;20020;-77
2021/07/07 06:28:35;;;;;;;4.10;1.60;;;16.40;83.40;;;;;;5073140;28;20027;-76
2021/07/07 06:31:00;;;;;;;5.47;1.42;;;16.40;84.00;;;;;;5072950;28;20043;-76
2021/07/07 06:33:26;;;;;;;3.50;1.10;;;16.40;84.20;;;;;;5072951;28;20469;-75
2021/07/07 06:35:52;;;;;;;3.40;0.90;;;16.40;84.00;;;;;;5072874;28;20056;-75
2021/07/07 06:38:17;;;;;;;2.05;0.75;;;16.40;84.50;;;;;;5071513;28;20487;-75
2021/07/07 06:40:43;;;;;;;1.85;0.85;;;16.40;84.20;;;;;;5072487;28;20024;-75
2021/07/07 06:43:08;;;;;;;1.90;0.80;;;16.40;83.80;;;;;;5072649;28;20103;-77
2021/07/07 06:45:37;;;;;;;3.05;0.90;;;16.40;83.70;;;;;;5072339;28;20035;-75
2021/07/07 06:48:09;;;;;;;3.28;0.98;;;16.40;84.10;;;;;;5072651;28;20037;-77
2021/07/07 06:50:36;;;;;;;0.88;0.70;;;16.50;84.50;;;;;;5071589;28;20040;-77
2021/07/07 06:53:04;;;;;;;1.73;0.90;;;16.50;84.70;;;;;;5072768;28;20127;-76
2021/07/07 06:55:30;;;;;;;1.23;0.70;;;16.50;85.10;;;;;;5072216;28;20093;-77
2021/07/07 06:57:56;;;;;;;1.35;0.80;;;16.50;85.50;;;;;;5072852;28;20025;-77
2021/07/07 07:00:23;;;;;;;5.50;1.30;;;16.50;86.10;;;;;;5072555;28;20020;-76
2021/07/07 07:02:50;;;;;;;2.47;0.95;;;16.50;86.50;;;;;;5072506;28;20488;-77
2021/07/07 07:05:18;;;;;;;2.58;0.60;;;16.50;86.60;;;;;;5072766;28;20029;-77
2021/07/07 07:07:44;;;;;;;2.55;0.75;;;16.50;86.90;;;;;;5072545;28;20024;-77
2021/07/07 07:10:11;;;;;;;1.92;0.88;;;16.40;86.90;;;;;;5072531;28;20102;-77
2021/07/07 07:12:38;;;;;;;2.90;1.08;;;16.40;87.10;;;;;;5072559;28;20127;-78
2021/07/07 07:15:08;;;;;;;1.83;1.10;;;16.50;87.30;;;;;;5072716;28;20023;-78
2021/07/07 07:17:34;;;;;;;1.33;0.95;;;16.50;87.00;;;;;;5072569;28;20025;-77
2021/07/07 07:20:00;;;;;;;1.27;0.88;;;16.60;86.90;;;;;;5072729;28;20021;-77
2021/07/07 07:22:26;;;;;;;1.95;0.82;;;16.60;86.30;;;;;;5072605;28;20075;-75
2021/07/07 07:24:52;;;;;;;3.20;1.17;;;16.60;86.20;;;;;;5072642;28;20490;-75
2021/07/07 07:27:18;;;;;;;2.15;0.90;;;16.80;86.40;;;;;;5071049;28;20127;-76
2021/07/07 07:29:45;;;;;;;2.47;1.05;;;16.80;86.70;;;;;;5072320;28;20380;-76
2021/07/07 07:32:11;;;;;;;1.77;0.90;;;16.90;86.80;;;;;;5072209;28;20107;-75
2021/07/07 07:34:37;;;;;;;2.25;1.15;;;17.00;86.90;;;;;;5072417;28;20151;-76
2021/07/07 07:37:04;;;;;;;2.40;0.82;;;17.00;86.80;;;;;;5075195;28;20040;-75
2021/07/07 07:39:40;;;;;;;3.50;1.30;;;17.00;86.80;;;;;;5076623;28;20024;-76
2021/07/07 07:42:10;;;;;;;3.00;1.30;;;17.10;86.70;;;;;;5076456;28;20020;-76
2021/07/07 07:44:37;;;;;;;1.48;0.82;;;17.10;86.60;;;;;;5076522;28;20025;-76
2021/07/07 07:47:03;;;;;;;1.20;0.60;;;17.10;86.70;;;;;;5075990;28;20052;-75
2021/07/07 07:49:29;;;;;;;0.93;0.77;;;17.10;86.80;;;;;;5076267;28;20064;-75
2021/07/07 07:51:54;;;;;;;1.50;0.60;;;17.10;86.90;;;;;;5076243;28;20060;-76
2021/07/07 07:54:20;;;;;;;0.77;0.40;;;17.10;86.80;;;;;;5076266;28;20028;-78
2021/07/07 07:56:46;;;;;;;16.83;5.15;;;17.00;86.70;;;;;;5076274;28;20103;-77
2021/07/07 07:59:11;;;;;;;12.30;3.15;;;17.20;91.10;;;;;;5074466;28;20020;-75
2021/07/07 08:01:37;;;;;;;9.68;2.05;;;17.40;91.20;;;;;;5076582;28;20024;-75
2021/07/07 08:04:03;;;;;;;6.03;1.70;;;17.70;88.60;;;;;;5075658;28;20052;-77
2021/07/07 08:06:29;;;;;;;6.93;1.50;;;17.90;86.90;;;;;;5076657;28;20020;-77
2021/07/07 08:08:56;;;;;;;2.22;1.27;;;18.20;85.00;;;;;;5075687;28;20094;-78
2021/07/07 08:11:22;;;;;;;3.45;1.30;;;18.30;84.00;;;;;;5075476;28;20032;-76
2021/07/07 08:13:48;;;;;;;2.55;1.33;;;18.40;83.50;;;;;;5075721;28;20389;-76
2021/07/07 08:16:13;;;;;;;2.10;1.17;;;18.40;83.00;;;;;;5076365;28;20078;-78
2021/07/07 08:18:40;;;;;;;1.45;1.08;;;18.40;82.70;;;;;;5075821;28;20028;-76
2021/07/07 08:21:06;;;;;;;3.95;1.60;;;18.50;82.40;;;;;;5075137;28;20435;-78
2021/07/07 08:23:31;;;;;;;1.67;1.00;;;18.50;81.80;;;;;;5075524;28;20070;-78
2021/07/07 08:25:57;;;;;;;2.60;1.30;;;18.50;82.00;;;;;;5075834;28;20029;-78
2021/07/07 08:28:23;;;;;;;2.55;1.20;;;18.50;81.50;;;;;;5074665;28;20021;-76
2021/07/07 08:30:48;;;;;;;1.45;0.90;;;18.40;80.90;;;;;;5073841;28;20032;-75
2021/07/07 08:33:15;;;;;;;1.88;1.10;;;18.00;80.30;;;;;;5074163;28;20020;-77
2021/07/07 08:35:42;;;;;;;2.47;1.15;;;17.80;81.00;;;;;;5073760;28;20025;-78
2021/07/07 08:38:08;;;;;;;1.58;1.10;;;17.70;81.30;;;;;;5074248;28;20127;-77
2021/07/07 08:40:34;;;;;;;5.15;1.38;;;17.70;82.30;;;;;;5074200;28;20111;-78
2021/07/07 08:43:00;;;;;;;3.58;1.10;;;17.70;81.70;;;;;;5074219;28;20123;-77
2021/07/07 08:45:26;;;;;;;3.55;1.05;;;17.70;81.10;;;;;;5073217;28;20465;-77
2021/07/07 08:47:52;;;;;;;4.60;0.90;;;17.70;80.70;;;;;;5072895;28;20036;-76
2021/07/07 08:50:26;;;;;;;2.80;1.05;;;17.70;80.20;;;;;;5073993;28;20070;-78
2021/07/07 08:52:54;;;;;;;4.90;1.10;;;17.60;76.50;;;;;;5073735;28;20059;-75
2021/07/07 08:55:21;;;;;;;2.75;1.10;;;17.70;77.10;;;;;;5075175;28;20490;-77
2021/07/07 08:57:47;;;;;;;4.20;1.33;;;17.70;78.20;;;;;;5073474;28;20517;-77
2021/07/07 09:00:38;;;;;;;3.28;1.10;;;17.70;77.50;;;;;;5073466;28;20029;-76
2021/07/07 09:03:03;;;;;;;1.90;0.90;;;17.70;77.60;;;;;;5076052;28;20024;-76
2021/07/07 09:05:31;;;;;;;4.75;1.02;;;17.60;74.80;;;;;;5079638;28;20036;-77
2021/07/07 09:08:04;;;;;;;4.30;1.20;;;17.60;72.90;;;;;;5075447;28;20020;-76
2021/07/07 09:10:32;;;;;;;2.15;0.90;;;17.50;74.00;;;;;;5073696;28;20060;-76
2021/07/07 09:13:17;;;;;;;5.22;1.48;;;17.60;76.00;;;;;;5073694;28;20031;-76
2021/07/07 09:15:44;;;;;;;3.42;1.30;;;17.60;77.70;;;;;;5073583;28;20587;-77
2021/07/07 09:18:33;;;;;;;5.30;1.52;;;17.70;78.80;;;;;;5075335;28;20544;-76
2021/07/07 09:20:59;;;;;;;1.70;1.00;;;17.80;80.10;;;;;;5077472;28;20025;-77
2021/07/07 09:23:28;;;;;;;1.48;1.00;;;17.80;80.10;;;;;;5079040;28;20074;-77
2021/07/07 09:25:59;;;;;;;3.83;1.25;;;17.80;80.10;;;;;;5077488;28;20081;-77
2021/07/07 09:28:29;;;;;;;1.98;0.98;;;17.80;80.20;;;;;;5073504;28;20031;-77
2021/07/07 09:31:01;;;;;;;3.45;1.38;;;17.90;80.00;;;;;;5072836;28;20060;-77
2021/07/07 09:33:28;;;;;;;3.22;1.20;;;17.90;77.90;;;;;;5072980;28;20055;-77
2021/07/07 09:36:18;;;;;;;6.43;1.30;;;17.90;77.90;;;;;;5072958;28;20031;-77
2021/07/07 09:38:44;;;;;;;1.77;1.10;;;18.00;77.30;;;;;;5074242;28;20516;-76
2021/07/07 09:41:13;;;;;;;2.65;1.27;;;18.10;77.60;;;;;;5073629;28;20071;-77
2021/07/07 09:43:52;;;;;;;3.13;1.98;;;18.30;77.70;;;;;;5072931;28;20067;-77
2021/07/07 09:46:20;;;;;;;4.15;2.10;;;18.50;78.60;;;;;;5072526;28;20104;-77
2021/07/07 09:48:51;;;;;;;2.85;1.58;;;18.50;78.10;;;;;;5073629;28;20044;-78
2021/07/07 09:51:17;;;;;;;4.70;2.13;;;18.70;76.70;;;;;;5073886;28;20415;-77
2021/07/07 09:53:43;;;;;;;2.78;1.30;;;18.80;76.00;;;;;;5072775;28;20073;-77
2021/07/07 09:56:08;;;;;;;3.00;1.20;;;18.70;76.40;;;;;;5072567;28;20024;-77
2021/07/07 09:58:34;;;;;;;4.65;1.38;;;18.70;77.00;;;;;;5072258;28;20484;-76
2021/07/07 10:01:00;;;;;;;3.40;1.40;;;18.80;76.60;;;;;;5072129;28;20029;-80
2021/07/07 10:03:27;;;;;;;4.68;1.33;;;18.90;76.30;;;;;;5071643;28;20036;-80
2021/07/07 10:05:56;;;;;;;1.10;0.95;;;18.90;77.00;;;;;;5072202;28;20056;-81
2021/07/07 10:08:21;;;;;;;3.35;1.30;;;19.00;77.00;;;;;;5071736;28;20017;-80
2021/07/07 10:10:48;;;;;;;2.92;1.20;;;19.10;77.30;;;;;;5071411;28;20119;-77
2021/07/07 10:13:15;;;;;;;3.88;1.40;;;19.20;76.50;;;;;;5073426;28;20021;-78
2021/07/07 10:15:41;;;;;;;1.55;1.13;;;19.30;76.50;;;;;;5073531;28;20025;-76
2021/07/07 10:18:08;;;;;;;4.85;1.42;;;19.40;75.60;;;;;;5072267;28;20043;-75
2021/07/07 10:20:34;;;;;;;4.65;1.20;;;19.40;74.70;;;;;;5073621;28;20029;-76
2021/07/07 10:23:03;;;;;;;3.83;1.25;;;19.30;73.20;;;;;;5073633;28;20427;-76
2021/07/07 10:25:30;;;;;;;4.63;1.23;;;19.30;73.90;;;;;;5072066;28;20031;-75
2021/07/07 10:28:07;;;;;;;3.33;1.20;;;19.30;74.10;;;;;;5073207;28;20025;-77
2021/07/07 10:30:51;;;;;;;2.42;1.23;;;19.20;73.80;;;;;;5073331;28;20126;-77
2021/07/07 10:33:22;;;;;;;3.63;1.10;;;19.10;75.20;;;;;;5072180;28;20052;-76
2021/07/07 10:35:48;;;;;;;3.95;1.40;;;19.10;75.70;;;;;;5072148;28;20443;-77
2021/07/07 10:38:14;;;;;;;3.70;1.30;;;19.10;76.10;;;;;;5073017;28;20021;-75
2021/07/07 10:40:48;;;;;;;5.30;1.60;;;19.20;76.90;;;;;;5073393;28;20037;-76
2021/07/07 10:43:42;;;;;;;2.05;1.00;;;19.10;76.30;;;;;;5076325;28;20032;-76
2021/07/07 10:46:08;;;;;;;2.53;0.90;;;18.90;75.80;;;;;;5073721;28;20035;-75
2021/07/07 10:48:34;;;;;;;2.63;0.98;;;18.80;76.40;;;;;;5079231;28;20397;-79
2021/07/07 10:51:22;;;;;;;1.17;0.77;;;18.80;76.10;;;;;;5074715;28;20113;-74
2021/07/07 10:53:48;;;;;;;3.55;1.40;;;18.80;76.10;;;;;;5074823;28;20069;-76
2021/07/07 10:56:13;;;;;;;9.80;1.40;;;18.80;76.00;;;;;;5074976;28;20059;-75
2021/07/07 10:58:40;;;;;;;3.33;1.20;;;18.80;75.70;;;;;;5073004;28;20457;-76
2021/07/07 11:01:56;;;;;;;5.18;1.50;;;18.80;76.20;;;;;;5072554;28;20025;-75
2021/07/07 11:04:38;;;;;;;1.95;1.30;;;18.80;76.00;;;;;;5035002;28;20029;-76
2021/07/07 11:07:31;;;;;;;3.15;1.38;;;18.80;76.90;;;;;;5034530;28;20242;-75
2021/07/07 11:10:12;;;;;;;1.83;1.20;;;18.90;78.20;;;;;;5065863;28;20507;-75
2021/07/07 11:12:41;;;;;;;3.03;1.45;;;19.00;78.90;;;;;;5072053;28;20028;-75
2021/07/07 11:15:19;;;;;;;1.58;1.10;;;19.10;79.70;;;;;;5072201;28;20025;-75
2021/07/07 11:17:50;;;;;;;3.03;1.10;;;19.10;80.80;;;;;;5071723;28;20032;-75
2021/07/07 11:20:28;;;;;;;4.20;1.20;;;19.20;80.10;;;;;;5071815;28;20033;-76
2021/07/07 11:23:16;;;;;;;2.35;1.02;;;19.20;79.90;;;;;;5072961;28;20017;-76
2021/07/07 11:25:41;;;;;;;3.20;1.40;;;19.20;79.80;;;;;;5052150;28;20127;-77
2021/07/07 11:28:15;;;;;;;5.35;1.38;;;19.20;80.30;;;;;;5072770;28;20096;-76
2021/07/07 11:30:42;;;;;;;1.98;1.30;;;19.20;80.40;;;;;;5072284;28;20017;-76
2021/07/07 11:33:08;;;;;;;3.58;1.33;;;19.20;80.60;;;;;;5070401;28;20039;-76
2021/07/07 11:35:38;;;;;;;1.70;1.10;;;19.20;81.60;;;;;;5072614;28;20044;-77
2021/07/07 11:38:06;;;;;;;2.63;1.40;;;19.30;81.20;;;;;;5054866;28;20102;-77
2021/07/07 11:40:44;;;;;;;4.15;1.30;;;19.30;79.80;;;;;;5072229;28;20028;-75
2021/07/07 11:43:17;;;;;;;2.97;1.60;;;19.40;80.30;;;;;;5064965;28;20056;-77
2021/07/07 11:45:49;;;;;;;2.88;1.35;;;19.50;80.60;;;;;;5071292;28;20017;-78
2021/07/07 11:48:30;;;;;;;1.77;0.95;;;19.60;79.60;;;;;;5070756;28;20507;-78
2021/07/07 11:50:59;;;;;;;2.97;1.60;;;19.70;79.80;;;;;;5070999;28;20036;-76
2021/07/07 11:53:34;;;;;;;5.75;1.38;;;19.60;79.70;;;;;;5072382;28;20377;-75
2021/07/07 11:56:03;;;;;;;1.75;1.10;;;19.60;79.80;;;;;;5070946;28;20031;-77
2021/07/07 11:58:44;;;;;;;1.88;1.10;;;19.70;79.60;;;;;;5072274;28;20028;-76
2021/07/07 12:01:19;;;;;;;2.92;1.15;;;20.00;79.30;;;;;;5070962;28;20032;-76
2021/07/07 12:04:06;;;;;;;2.65;1.30;;;20.20;78.80;;;;;;5071166;28;20025;-76
2021/07/07 12:06:35;;;;;;;1.80;0.95;;;20.60;78.40;;;;;;5075171;28;20031;-76
2021/07/07 12:09:03;;;;;;;0.85;0.68;;;20.80;77.10;;;;;;5070717;28;20028;-76
2021/07/07 12:11:29;;;;;;;2.00;0.93;;;21.10;76.30;;;;;;5070804;28;20393;-76
2021/07/07 12:13:57;;;;;;;1.67;0.70;;;21.20;75.00;;;;;;5070924;28;20465;-77
2021/07/07 12:16:39;;;;;;;0.88;0.60;;;21.30;73.10;;;;;;5070850;28;20033;-76
2021/07/07 12:19:06;;;;;;;2.25;0.90;;;21.40;72.60;;;;;;5071266;28;20119;-76
2021/07/07 12:21:43;;;;;;;1.48;0.90;;;21.40;73.00;;;;;;5073361;28;20484;-76
2021/07/07 12:24:29;;;;;;;2.50;1.00;;;21.50;72.60;;;;;;5074451;28;20031;-76
2021/07/07 12:27:01;;;;;;;1.02;0.57;;;21.50;72.10;;;;;;5074691;28;20025;-76
2021/07/07 12:29:32;;;;;;;1.90;0.60;;;21.40;71.30;;;;;;5057785;28;20031;-76
2021/07/07 12:32:25;;;;;;;1.55;0.70;;;21.30;71.60;;;;;;5075719;28;20055;-76
2021/07/07 12:34:52;;;;;;;0.60;0.45;;;21.20;72.80;;;;;;5074323;28;20021;-76
2021/07/07 12:37:18;;;;;;;0.30;0.30;;;21.00;69.50;;;;;;5077564;28;20025;-76
2021/07/07 12:39:57;;;;;;;0.73;0.40;;;20.90;68.80;;;;;;5074252;28;20048;-76
2021/07/07 12:42:33;;;;;;;0.57;0.30;;;20.70;68.50;;;;;;5075248;28;20059;-76
2021/07/07 12:45:17;;;;;;;0.20;0.20;;;20.50;69.00;;;;;;5077641;28;20017;-76
2021/07/07 12:47:46;;;;;;;0.40;0.32;;;20.50;69.70;;;;;;5068150;28;20131;-76
2021/07/07 12:50:24;;;;;;;0.25;0.25;;;20.60;70.90;;;;;;5089838;28;20471;-77
2021/07/07 12:52:50;;;;;;;0.93;0.40;;;20.70;70.10;;;;;;5081970;28;20020;-77